createdAt,value
2019-01-25T00:01:32.738Z,79.96
2019-01-25T00:04:03.368Z,80.15
2019-01-25T00:06:33.785Z,80.35
2019-01-25T00:09:06.392Z,80.32
2019-01-25T00:11:36.950Z,80.06
2019-01-25T00:14:07.518Z,79.81
2019-01-25T00:16:38.064Z,80.03
2019-01-25T00:19:08.397Z,80.27
2019-01-25T00:21:39.134Z,80.26
2019-01-25T00:24:12.097Z,80.51
2019-01-25T00:26:42.538Z,80.17
2019-01-25T00:29:16.983Z,80.41
2019-01-25T00:31:47.630Z,80.56
2019-01-25T00:34:18.060Z,80.55
2019-01-25T00:36:52.701Z,80.74
2019-01-25T00:39:23.470Z,80.43
2019-01-25T00:41:54.023Z,80.50
2019-01-25T00:44:24.414Z,80.74
2019-01-25T00:46:54.850Z,80.98
2019-01-25T00:49:26.191Z,80.96
2019-01-25T00:51:59.345Z,80.99
2019-01-25T00:54:29.749Z,81.05
2019-01-25T00:57:00.130Z,81.54
2019-01-25T00:59:30.668Z,81.33
2019-01-25T01:02:01.100Z,81.30
2019-01-25T01:04:31.927Z,81.48
2019-01-25T01:07:06.694Z,81.45
2019-01-25T01:09:41.166Z,81.39
2019-01-25T01:12:13.621Z,81.75
2019-01-25T01:14:44.327Z,81.75
2019-01-25T01:17:14.842Z,81.58
2019-01-25T01:19:45.491Z,81.71
2019-01-25T01:22:16.285Z,82.03
2019-01-25T01:24:47.664Z,82.07
2019-01-25T01:27:18.112Z,82.22
2019-01-25T01:29:48.852Z,81.67
2019-01-25T01:32:19.476Z,81.91
2019-01-25T01:34:58.427Z,81.73
2019-01-25T01:37:28.849Z,82.16
2019-01-25T01:39:59.287Z,82.93
2019-01-25T01:42:29.746Z,82.57
2019-01-25T01:45:00.267Z,82.12
2019-01-25T01:47:30.730Z,82.25
2019-01-25T01:50:01.115Z,82.53
2019-01-25T01:52:31.556Z,82.24
2019-01-25T01:55:01.898Z,81.72
2019-01-25T01:57:32.315Z,81.38
2019-01-25T02:00:02.991Z,81.73
2019-01-25T02:02:33.457Z,82.09
2019-01-25T02:05:03.856Z,82.29
2019-01-25T02:07:34.269Z,82.38
2019-01-25T02:10:05.766Z,82.14
2019-01-25T02:12:36.311Z,82.26
2019-01-25T02:15:08.078Z,82.81
2019-01-25T02:17:38.715Z,82.30
2019-01-25T02:20:11.323Z,82.26
2019-01-25T02:22:42.837Z,82.40
2019-01-25T02:25:13.284Z,82.66
2019-01-25T02:27:46.790Z,82.88
2019-01-25T02:30:21.456Z,82.54
2019-01-25T02:32:52.026Z,82.67
2019-01-25T02:35:22.546Z,82.75
2019-01-25T02:37:52.981Z,82.83
2019-01-25T02:40:25.173Z,83.17
2019-01-25T02:42:55.934Z,83.05
2019-01-25T02:45:26.593Z,83.07
2019-01-25T02:47:57.109Z,83.21
2019-01-25T02:50:27.466Z,83.46
2019-01-25T02:53:03.675Z,83.58
2019-01-25T02:55:30.631Z,83.65
2019-01-25T02:58:01.128Z,83.95
2019-01-25T03:00:31.521Z,83.77
2019-01-25T03:03:01.946Z,84.16
2019-01-25T03:05:34.627Z,84.53
2019-01-25T03:08:05.056Z,84.65
2019-01-25T03:10:35.460Z,84.78
2019-01-25T03:13:06.049Z,85.28
2019-01-25T03:15:36.419Z,85.77
2019-01-25T03:18:09.044Z,86.17
2019-01-25T03:20:39.773Z,86.84
2019-01-25T03:23:10.134Z,87.38
2019-01-25T03:25:40.809Z,87.40
2019-01-25T03:28:11.191Z,87.70
2019-01-25T03:30:41.608Z,87.66
2019-01-25T03:33:12.000Z,88.29
2019-01-25T03:35:44.516Z,89.24
2019-01-25T03:38:28.279Z,89.73
2019-01-25T03:40:59.238Z,89.98
2019-01-25T03:43:31.276Z,90.49
2019-01-25T03:46:02.148Z,91.20
2019-01-25T03:48:32.523Z,91.58
2019-01-25T03:51:02.966Z,91.78
2019-01-25T03:53:33.589Z,93.01
2019-01-25T03:56:04.322Z,94.01
2019-01-25T03:58:34.614Z,94.68
2019-01-25T04:01:05.028Z,95.59
2019-01-25T04:03:35.540Z,95.89
2019-01-25T04:06:23.485Z,96.33
2019-01-25T04:08:56.267Z,96.52
2019-01-25T04:11:26.774Z,97.02
2019-01-25T04:13:57.166Z,97.16
2019-01-25T04:16:27.619Z,97.12
2019-01-25T04:18:58.215Z,96.67
2019-01-25T04:21:28.665Z,96.25
2019-01-25T04:23:59.182Z,96.07
2019-01-25T04:26:29.575Z,96.24
2019-01-25T04:29:00.402Z,95.79
2019-01-25T04:31:30.800Z,95.08
2019-01-25T04:34:02.324Z,95.04
2019-01-25T04:36:32.768Z,94.64
2019-01-25T04:39:04.113Z,94.80
2019-01-25T04:41:34.674Z,95.08
2019-01-25T04:44:05.683Z,94.99
2019-01-25T04:46:38.117Z,94.95
2019-01-25T04:49:10.788Z,95.04
2019-01-25T04:51:41.216Z,95.13
2019-01-25T04:54:11.697Z,95.24
2019-01-25T04:56:42.549Z,94.88
2019-01-25T04:59:13.223Z,94.41
2019-01-25T05:01:46.510Z,94.60
2019-01-25T05:04:17.044Z,94.06
2019-01-25T05:06:47.486Z,94.19
2019-01-25T05:09:17.819Z,93.93
2019-01-25T05:11:49.008Z,93.50
2019-01-25T05:14:19.560Z,93.40
2019-01-25T05:16:50.751Z,93.23
2019-01-25T05:19:21.183Z,93.45
2019-01-25T05:21:51.810Z,93.58
2019-01-25T05:24:22.521Z,93.78
2019-01-25T05:26:58.017Z,93.43
2019-01-25T05:29:50.068Z,93.68
2019-01-25T05:32:21.142Z,93.73
2019-01-25T05:34:51.552Z,94.07
2019-01-25T05:37:23.408Z,94.59
2019-01-25T05:39:53.850Z,94.78
2019-01-25T05:42:24.200Z,94.59
2019-01-25T05:44:57.421Z,95.12
2019-01-25T05:47:28.294Z,94.96
2019-01-25T05:49:58.756Z,95.05
2019-01-25T05:52:29.370Z,95.24
2019-01-25T05:54:59.753Z,95.42
2019-01-25T05:57:30.114Z,95.07
2019-01-25T06:00:03.548Z,95.15
2019-01-25T06:02:34.237Z,95.34
2019-01-25T06:05:05.046Z,95.21
2019-01-25T06:07:35.443Z,95.38
2019-01-25T06:10:06.699Z,95.76
2019-01-25T06:12:37.083Z,96.03
2019-01-25T06:15:07.746Z,96.25
2019-01-25T06:17:38.201Z,96.67
2019-01-25T06:20:08.945Z,96.53
2019-01-25T06:22:40.953Z,96.69
2019-01-25T06:25:11.987Z,96.93
2019-01-25T06:27:44.794Z,96.93
2019-01-25T06:30:16.849Z,97.43
2019-01-25T06:32:47.399Z,98.06
2019-01-25T06:35:18.602Z,98.99
2019-01-25T06:37:51.901Z,99.62
2019-01-25T06:40:22.374Z,98.87
2019-01-25T06:42:52.709Z,98.99
2019-01-25T06:45:26.302Z,98.94
2019-01-25T06:47:56.741Z,98.89
2019-01-25T06:50:27.405Z,98.91
2019-01-25T06:52:57.933Z,98.85
2019-01-25T06:55:28.323Z,98.89
2019-01-25T06:58:09.304Z,98.18
2019-01-25T07:00:44.119Z,97.45
2019-01-25T07:03:14.676Z,97.84
2019-01-25T07:05:48.131Z,98.07
2019-01-25T07:08:19.440Z,98.14
2019-01-25T07:10:51.042Z,97.43
2019-01-25T07:13:21.497Z,97.91
2019-01-25T07:15:55.128Z,98.16
2019-01-25T07:18:25.549Z,97.89
2019-01-25T07:20:57.343Z,97.62
2019-01-25T07:23:29.616Z,97.82
2019-01-25T07:26:00.007Z,98.10
2019-01-25T07:28:30.769Z,98.68
2019-01-25T07:31:01.320Z,98.96
2019-01-25T07:33:32.087Z,99.48
2019-01-25T07:36:02.396Z,99.28
2019-01-25T07:38:32.921Z,99.15
2019-01-25T07:41:06.279Z,98.94
2019-01-25T07:43:36.746Z,99.29
2019-01-25T07:46:07.566Z,99.59
2019-01-25T07:48:37.948Z,98.89
2019-01-25T07:51:08.408Z,98.74
2019-01-25T07:53:38.867Z,99.20
2019-01-25T07:56:09.396Z,98.48
2019-01-25T07:58:39.913Z,97.98
2019-01-25T08:01:14.689Z,98.14
2019-01-25T08:03:45.168Z,98.35
2019-01-25T08:06:18.708Z,98.00
2019-01-25T08:08:49.275Z,97.93
2019-01-25T08:11:21.834Z,97.75
2019-01-25T08:13:52.207Z,97.93
2019-01-25T08:16:22.729Z,98.00
2019-01-25T08:18:53.198Z,96.34
2019-01-25T08:21:23.809Z,96.30
2019-01-25T08:23:54.167Z,95.33
2019-01-25T08:26:25.979Z,95.61
2019-01-25T08:28:56.470Z,95.92
2019-01-25T08:31:27.042Z,95.55
2019-01-25T08:33:57.389Z,95.27
2019-01-25T08:36:27.839Z,94.59
2019-01-25T08:38:58.160Z,94.08
2019-01-25T08:41:28.624Z,94.24
2019-01-25T08:44:01.827Z,94.31
2019-01-25T08:46:32.555Z,94.52
2019-01-25T08:49:03.116Z,94.52
2019-01-25T08:51:33.533Z,94.52
2019-01-25T08:54:04.117Z,94.88
2019-01-25T08:56:34.788Z,94.96
2019-01-25T08:59:05.479Z,93.83
2019-01-25T09:01:36.275Z,93.61
2019-01-25T09:04:06.714Z,93.48
2019-01-25T09:06:36.968Z,93.76
2019-01-25T09:09:10.405Z,94.24
2019-01-25T09:11:43.197Z,94.21
2019-01-25T09:14:13.545Z,93.61
2019-01-25T09:16:43.928Z,93.34
2019-01-25T09:19:14.269Z,93.40
2019-01-25T09:21:45.158Z,92.91
2019-01-25T09:24:16.684Z,92.08
2019-01-25T09:26:47.568Z,92.01
2019-01-25T09:29:18.193Z,92.00
2019-01-25T09:31:49.396Z,92.43
2019-01-25T09:34:20.465Z,92.01
2019-01-25T09:36:52.697Z,91.96
2019-01-25T09:39:23.457Z,91.48
2019-01-25T09:41:53.851Z,91.84
2019-01-25T09:44:25.156Z,92.25
2019-01-25T09:46:55.568Z,92.43
2019-01-25T09:49:28.982Z,92.43
2019-01-25T09:52:02.330Z,92.99
2019-01-25T09:54:32.737Z,93.12
2019-01-25T09:57:05.033Z,93.21
2019-01-25T09:59:35.514Z,93.11
2019-01-25T10:02:05.923Z,93.42
2019-01-25T10:04:36.420Z,93.33
2019-01-25T10:07:06.873Z,94.22
2019-01-25T10:09:37.528Z,94.30
2019-01-25T10:12:07.943Z,94.64
2019-01-25T10:14:38.418Z,95.17
2019-01-25T10:17:08.900Z,95.38
2019-01-25T10:19:39.235Z,95.83
2019-01-25T10:22:09.703Z,96.22
2019-01-25T10:24:40.093Z,96.03
2019-01-25T10:27:10.413Z,96.24
2019-01-25T10:29:40.805Z,96.22
2019-01-25T10:32:11.329Z,95.93
2019-01-25T10:34:41.775Z,94.57
2019-01-25T10:37:12.574Z,95.01
2019-01-25T10:39:43.475Z,95.25
2019-01-25T10:42:14.233Z,95.67
2019-01-25T10:44:44.637Z,95.61
2019-01-25T10:47:14.962Z,94.89
2019-01-25T10:49:45.349Z,95.11
2019-01-25T10:52:16.142Z,95.62
2019-01-25T10:54:46.576Z,95.88
2019-01-25T10:57:17.091Z,96.43
2019-01-25T10:59:47.802Z,96.83
2019-01-25T11:02:18.207Z,96.63
2019-01-25T11:04:50.193Z,97.04
2019-01-25T11:07:22.798Z,96.97
2019-01-25T11:09:53.198Z,97.21
2019-01-25T11:12:25.130Z,96.19
2019-01-25T11:14:55.650Z,94.98
2019-01-25T11:17:26.082Z,96.79
2019-01-25T11:19:59.255Z,97.55
2019-01-25T11:22:29.990Z,97.65
2019-01-25T11:25:00.627Z,97.48
2019-01-25T11:27:32.208Z,97.95
2019-01-25T11:30:02.644Z,98.09
2019-01-25T11:32:32.996Z,97.56
2019-01-25T11:35:04.841Z,97.19
2019-01-25T11:37:35.240Z,97.10
2019-01-25T11:40:10.208Z,96.18
2019-01-25T11:42:40.565Z,95.64
2019-01-25T11:45:11.465Z,94.90
2019-01-25T11:47:44.174Z,94.30
2019-01-25T11:50:15.675Z,93.05
2019-01-25T11:52:46.199Z,92.74
2019-01-25T11:55:16.981Z,92.52
2019-01-25T11:57:47.457Z,92.69
2019-01-25T12:00:20.631Z,93.47
2019-01-25T12:02:51.335Z,93.47
2019-01-25T12:05:22.872Z,93.16
2019-01-25T12:07:54.496Z,92.69
2019-01-25T12:10:29.496Z,91.23
2019-01-25T12:12:59.856Z,91.27
2019-01-25T12:15:30.305Z,91.78
2019-01-25T12:18:00.733Z,90.67
2019-01-25T12:20:31.777Z,90.12
2019-01-25T12:23:02.895Z,89.00
2019-01-25T12:25:33.240Z,87.49
2019-01-25T12:28:05.274Z,87.47
2019-01-25T12:30:38.372Z,87.75
2019-01-25T12:33:09.902Z,87.20
2019-01-25T12:35:42.338Z,87.97
2019-01-25T12:38:12.768Z,87.77
2019-01-25T12:40:43.219Z,87.82
2019-01-25T12:43:13.630Z,86.70
2019-01-25T12:45:44.021Z,85.93
2019-01-25T12:48:14.455Z,83.87
2019-01-25T12:50:49.182Z,83.71
2019-01-25T12:53:20.983Z,82.65
2019-01-25T12:55:51.472Z,82.63
2019-01-25T12:58:21.857Z,82.75
2019-01-25T13:00:54.191Z,82.91
2019-01-25T13:03:26.839Z,83.39
2019-01-25T13:05:57.801Z,83.45
2019-01-25T13:08:30.550Z,83.00
2019-01-25T13:11:03.634Z,82.74
2019-01-25T13:13:36.299Z,82.17
2019-01-25T13:16:06.677Z,81.44
2019-01-25T13:18:37.231Z,81.87
2019-01-25T13:21:07.690Z,80.28
2019-01-25T13:23:38.961Z,80.01
2019-01-25T13:26:09.481Z,80.21
2019-01-25T13:28:41.709Z,80.23
2019-01-25T13:31:11.981Z,79.54
2019-01-25T13:33:42.376Z,80.03
2019-01-25T13:36:14.224Z,79.92
2019-01-25T13:38:44.548Z,79.95
2019-01-25T13:41:14.895Z,80.33
2019-01-25T13:43:45.238Z,79.85
2019-01-25T13:46:15.646Z,79.89
2019-01-25T13:48:46.571Z,80.53
2019-01-25T13:51:17.049Z,80.50
2019-01-25T13:53:47.383Z,80.53
2019-01-25T13:56:17.833Z,80.16
2019-01-25T13:58:49.934Z,79.89
2019-01-25T14:01:20.650Z,80.08
2019-01-25T14:03:51.159Z,81.08
2019-01-25T14:06:21.623Z,81.43
2019-01-25T14:08:53.616Z,81.44
2019-01-25T14:11:24.028Z,81.64
2019-01-25T14:13:54.444Z,81.00
2019-01-25T14:16:24.784Z,80.44
2019-01-25T14:18:55.304Z,80.77
2019-01-25T14:21:25.587Z,80.92
2019-01-25T14:23:56.003Z,81.59
2019-01-25T14:26:26.388Z,80.90
2019-01-25T14:28:56.833Z,81.81
2019-01-25T14:31:27.200Z,81.40
2019-01-25T14:33:57.569Z,81.15
2019-01-25T14:36:28.228Z,80.24
2019-01-25T14:38:58.578Z,80.71
2019-01-25T14:41:28.962Z,81.05
2019-01-25T14:43:59.318Z,80.85
2019-01-25T14:46:29.775Z,81.57
2019-01-25T14:49:00.335Z,81.95
2019-01-25T14:51:31.154Z,80.17
2019-01-25T14:54:01.549Z,81.08
2019-01-25T14:56:34.499Z,81.66
2019-01-25T14:59:05.069Z,80.85
2019-01-25T15:01:35.480Z,80.79
2019-01-25T15:04:05.976Z,82.11
2019-01-25T15:06:36.347Z,82.36
2019-01-25T15:09:09.821Z,82.72
2019-01-25T15:11:40.232Z,82.88
2019-01-25T15:14:10.752Z,81.76
2019-01-25T15:16:41.226Z,82.73
2019-01-25T15:19:11.711Z,82.90
2019-01-25T15:21:42.348Z,82.32
2019-01-25T15:24:14.510Z,82.57
2019-01-25T15:26:44.924Z,83.02
2019-01-25T15:29:16.109Z,82.52
2019-01-25T15:31:46.503Z,82.61
2019-01-25T15:34:17.020Z,82.18
2019-01-25T15:36:48.867Z,82.27
2019-01-25T15:39:19.497Z,82.67
2019-01-25T15:41:49.811Z,82.69
2019-01-25T15:44:20.250Z,82.45
2019-01-25T15:46:54.322Z,83.30
2019-01-25T15:49:24.800Z,83.64
2019-01-25T15:51:55.173Z,84.59
2019-01-25T15:54:26.557Z,86.60
2019-01-25T15:56:57.252Z,88.33
2019-01-25T15:59:27.711Z,89.10
2019-01-25T16:01:58.396Z,91.39
2019-01-25T16:04:34.792Z,93.84
2019-01-25T16:07:00.989Z,95.15
2019-01-25T16:09:31.432Z,96.56
2019-01-25T16:12:01.846Z,97.75
2019-01-25T16:14:32.303Z,98.33
2019-01-25T16:17:02.802Z,99.77
2019-01-25T16:19:33.256Z,100.00
2019-01-25T16:22:03.740Z,100.00
2019-01-25T16:24:34.199Z,100.00
2019-01-25T16:27:04.842Z,100.00
2019-01-25T16:29:35.360Z,100.00
2019-01-25T16:32:11.912Z,100.00
2019-01-25T16:34:42.293Z,100.00
2019-01-25T16:37:12.825Z,100.00
2019-01-25T16:39:45.478Z,100.00
2019-01-25T16:42:18.286Z,100.00
2019-01-25T16:44:48.960Z,100.00
2019-01-25T16:47:19.342Z,100.00
2019-01-25T16:49:49.720Z,100.00
2019-01-25T16:52:21.443Z,100.00
2019-01-25T16:54:51.844Z,100.00
2019-01-25T16:57:25.159Z,100.00
2019-01-25T16:59:55.621Z,100.00
2019-01-25T17:02:26.021Z,100.00
2019-01-25T17:04:56.468Z,100.00
2019-01-25T17:07:28.972Z,100.00
2019-01-25T17:10:02.443Z,100.00
2019-01-25T17:12:32.775Z,100.00
2019-01-25T17:15:03.403Z,100.00
2019-01-25T17:17:33.826Z,100.00
2019-01-25T17:20:04.742Z,100.00
2019-01-25T17:22:37.548Z,100.00
2019-01-25T17:25:09.586Z,100.00
2019-01-25T17:27:40.220Z,100.00
2019-01-25T17:30:14.978Z,100.00
2019-01-25T17:32:45.476Z,100.00
2019-01-25T17:35:15.892Z,100.00
2019-01-25T17:37:46.330Z,100.00
2019-01-25T17:40:17.848Z,100.00
2019-01-25T17:42:48.264Z,100.00
2019-01-25T17:45:18.674Z,100.00
2019-01-25T17:47:49.011Z,100.00
2019-01-25T17:50:19.676Z,100.00
2019-01-25T17:52:50.045Z,100.00
2019-01-25T17:55:20.521Z,100.00
2019-01-25T17:57:50.960Z,100.00
2019-01-25T18:00:37.390Z,100.00
2019-01-25T18:03:08.632Z,100.00
2019-01-25T18:05:41.600Z,100.00
2019-01-25T18:08:12.335Z,100.00
2019-01-25T18:10:42.848Z,100.00
2019-01-25T18:13:25.810Z,100.00
2019-01-25T18:15:56.507Z,100.00
2019-01-25T18:18:27.014Z,100.00
2019-01-25T18:20:57.438Z,100.00
2019-01-25T18:23:30.662Z,100.00
2019-01-25T18:26:12.779Z,100.00
2019-01-25T18:28:56.613Z,100.00
2019-01-25T18:31:30.614Z,100.00
2019-01-25T18:34:02.271Z,100.00
2019-01-25T18:36:33.815Z,100.00
2019-01-25T18:39:08.353Z,100.00
2019-01-25T18:41:42.324Z,100.00
2019-01-25T18:44:12.796Z,100.00
2019-01-25T18:46:43.180Z,100.00
2019-01-25T18:49:13.701Z,100.00
2019-01-25T18:51:44.338Z,100.00
2019-01-25T18:54:14.816Z,100.00
2019-01-25T18:56:47.851Z,100.00
2019-01-25T18:59:18.724Z,100.00
2019-01-25T19:01:49.898Z,100.00
2019-01-25T19:04:21.118Z,100.00
2019-01-25T19:06:52.566Z,100.00
2019-01-25T19:09:23.400Z,100.00
2019-01-25T19:11:53.953Z,100.00
2019-01-25T19:14:24.368Z,100.00
2019-01-25T19:16:54.838Z,100.00
2019-01-25T19:19:25.281Z,100.00
2019-01-25T19:21:56.126Z,100.00
2019-01-25T19:24:28.415Z,100.00
2019-01-25T19:27:01.461Z,100.00
2019-01-25T19:29:33.085Z,100.00
2019-01-25T19:32:06.479Z,100.00
2019-01-25T19:34:37.789Z,100.00
2019-01-25T19:37:09.141Z,100.00
2019-01-25T19:39:40.354Z,100.00
2019-01-25T19:42:11.776Z,100.00
2019-01-25T19:44:43.323Z,100.00
2019-01-25T19:47:17.846Z,100.00
2019-01-25T19:49:49.091Z,100.00
2019-01-25T19:52:20.519Z,100.00
2019-01-25T19:54:51.449Z,100.00
2019-01-25T19:57:22.879Z,100.00
2019-01-25T19:59:54.392Z,100.00
2019-01-25T20:02:25.824Z,100.00
2019-01-25T20:04:56.289Z,100.00
2019-01-25T20:07:27.772Z,100.00
2019-01-25T20:09:58.298Z,100.00
2019-01-25T20:12:30.861Z,100.00
2019-01-25T20:15:01.437Z,100.00
2019-01-25T20:17:32.375Z,100.00
2019-01-25T20:20:02.795Z,100.00
2019-01-25T20:22:35.064Z,100.00
2019-01-25T20:25:06.180Z,100.00
2019-01-25T20:27:37.608Z,100.00
2019-01-25T20:30:13.756Z,100.00
2019-01-25T20:32:44.258Z,100.00
2019-01-25T20:35:18.943Z,100.00
2019-01-25T20:37:51.203Z,100.00
2019-01-25T20:40:21.711Z,100.00
2019-01-25T20:42:52.160Z,100.00
2019-01-25T20:45:27.345Z,100.00
2019-01-25T20:47:57.750Z,100.00
2019-01-25T20:50:32.143Z,100.00
2019-01-25T20:53:03.021Z,100.00
2019-01-25T20:55:33.822Z,100.00
2019-01-25T20:58:04.649Z,100.00
2019-01-25T21:00:36.853Z,100.00
2019-01-25T21:03:10.576Z,100.00
2019-01-25T21:05:41.169Z,100.00
2019-01-25T21:08:11.729Z,100.00
2019-01-25T21:10:42.473Z,100.00
2019-01-25T21:13:13.664Z,100.00
2019-01-25T21:15:44.088Z,100.00
2019-01-25T21:18:14.515Z,100.00
2019-01-25T21:20:46.814Z,100.00
2019-01-25T21:23:17.289Z,100.00
2019-01-25T21:25:48.521Z,100.00
2019-01-25T21:28:19.230Z,100.00
2019-01-25T21:30:55.830Z,100.00
2019-01-25T21:33:28.055Z,100.00
2019-01-25T21:35:58.399Z,100.00
2019-01-25T21:38:31.803Z,100.00
2019-01-25T21:41:02.218Z,100.00
2019-01-25T21:43:32.962Z,100.00
2019-01-25T21:46:03.568Z,100.00
2019-01-25T21:48:34.424Z,100.00
2019-01-25T21:51:05.264Z,100.00
2019-01-25T21:53:35.797Z,100.00
2019-01-25T21:56:06.491Z,100.00
2019-01-25T21:58:37.111Z,100.00
2019-01-25T22:01:07.596Z,100.00
2019-01-25T22:03:37.989Z,100.00
2019-01-25T22:06:08.991Z,100.00
2019-01-25T22:08:39.605Z,100.00
2019-01-25T22:11:10.485Z,100.00
2019-01-25T22:13:41.079Z,100.00
2019-01-25T22:16:11.516Z,100.00
2019-01-25T22:18:42.025Z,100.00
2019-01-25T22:21:12.498Z,100.00
2019-01-25T22:23:46.494Z,100.00
2019-01-25T22:26:17.950Z,100.00
2019-01-25T22:28:52.542Z,100.00
2019-01-25T22:31:31.893Z,100.00
2019-01-25T22:34:17.798Z,100.00
2019-01-25T22:37:13.876Z,100.00
2019-01-25T22:39:45.044Z,100.00
2019-01-25T22:44:51.442Z,100.00
2019-01-25T22:47:21.801Z,100.00
2019-01-25T22:49:52.285Z,100.00
2019-01-25T22:52:22.896Z,100.00
2019-01-25T22:54:53.268Z,100.00
2019-01-25T22:57:23.751Z,100.00
2019-01-25T22:59:59.264Z,100.00
2019-01-25T23:02:29.707Z,100.00
2019-01-25T23:05:22.076Z,100.00
2019-01-25T23:07:58.506Z,100.00
2019-01-25T23:10:28.995Z,100.00
2019-01-25T23:13:02.429Z,100.00
2019-01-25T23:15:33.126Z,100.00
2019-01-25T23:18:07.777Z,100.00
2019-01-25T23:20:38.277Z,100.00
2019-01-25T23:23:08.775Z,100.00
2019-01-25T23:25:39.239Z,100.00
2019-01-25T23:28:09.693Z,100.00
2019-01-25T23:30:40.502Z,100.00
2019-01-25T23:33:11.440Z,100.00
2019-01-25T23:35:44.188Z,100.00
2019-01-25T23:38:14.602Z,100.00
2019-01-25T23:40:47.858Z,100.00
2019-01-25T23:43:18.263Z,100.00
2019-01-25T23:45:48.714Z,100.00
2019-01-25T23:48:19.392Z,100.00
2019-01-25T23:50:51.441Z,100.00
2019-01-25T23:53:22.005Z,100.00
2019-01-25T23:55:55.664Z,100.00
2019-01-25T23:58:27.886Z,100.00
